Time;durP1;ratioP1;P1;durP2;ratioP2;P2;SDS_P1;SDS_P2;PMS_P1;PMS_P2;Temp;Humidity;BMP_temperature;BMP_pressure;BME280_temperature;BME280_humidity;BME280_pressure;Samples;Min_cycle;Max_cycle;Signal;HPM_P1;HPM_P2
2021/07/22 00:00:20;;;;;;;20.35;7.15;;;18.90;99.90;;;;;;5018560;28;20030;-77
2021/07/22 00:02:48;;;;;;;7.85;6.00;;;18.90;99.90;;;;;;5016365;28;20030;-77
2021/07/22 00:05:13;;;;;;;9.57;6.50;;;18.90;99.90;;;;;;5015971;28;20061;-75
2021/07/22 00:07:39;;;;;;;9.13;6.57;;;18.90;99.90;;;;;;4998337;28;20080;-76
2021/07/22 00:10:05;;;;;;;8.00;6.32;;;18.80;99.90;;;;;;5015596;28;20500;-77
2021/07/22 00:12:31;;;;;;;9.57;6.20;;;18.80;99.90;;;;;;4999477;28;20029;-77
2021/07/22 00:14:56;;;;;;;9.55;7.03;;;18.80;99.90;;;;;;5016713;28;20026;-77
2021/07/22 00:17:22;;;;;;;9.18;7.00;;;18.80;99.90;;;;;;5015439;28;20049;-78
2021/07/22 00:19:48;;;;;;;6.75;5.75;;;18.70;99.90;;;;;;5007808;28;20545;-76
2021/07/22 00:22:13;;;;;;;9.35;6.65;;;18.70;99.90;;;;;;5014617;28;20037;-76
2021/07/22 00:24:39;;;;;;;9.55;5.88;;;18.70;99.90;;;;;;4997854;28;20406;-77
2021/07/22 00:27:04;;;;;;;9.32;6.57;;;18.70;99.90;;;;;;5015076;28;20025;-77
2021/07/22 00:29:33;;;;;;;7.45;6.75;;;18.60;99.90;;;;;;5015707;28;20022;-77
2021/07/22 00:31:59;;;;;;;7.50;6.22;;;18.50;99.90;;;;;;5015802;28;20030;-77
2021/07/22 00:34:25;;;;;;;7.53;6.45;;;18.50;99.90;;;;;;5016313;28;20037;-77
2021/07/22 00:36:50;;;;;;;7.38;6.18;;;18.50;99.90;;;;;;5016082;28;20026;-77
2021/07/22 00:39:17;;;;;;;7.03;5.95;;;18.30;99.90;;;;;;5016039;28;20030;-76
2021/07/22 00:41:43;;;;;;;6.68;6.07;;;18.40;99.90;;;;;;5015440;28;20413;-76
2021/07/22 00:44:09;;;;;;;9.43;6.07;;;18.40;99.90;;;;;;5015366;28;20026;-77
2021/07/22 00:46:34;;;;;;;11.02;6.43;;;18.40;99.90;;;;;;5015446;28;20505;-77
2021/07/22 00:49:00;;;;;;;7.45;5.97;;;18.40;99.90;;;;;;5014541;28;20026;-76
2021/07/22 00:51:26;;;;;;;10.15;6.43;;;18.30;99.90;;;;;;5015425;28;20034;-77
2021/07/22 00:53:51;;;;;;;8.65;6.20;;;18.30;99.90;;;;;;4997571;28;20037;-77
2021/07/22 00:56:17;;;;;;;12.93;6.38;;;18.20;99.90;;;;;;5015265;28;20274;-76
2021/07/22 00:58:42;;;;;;;7.00;5.60;;;18.00;99.90;;;;;;5015417;28;20037;-77
2021/07/22 01:01:08;;;;;;;5.97;5.38;;;18.10;99.90;;;;;;5014241;28;20032;-77
2021/07/22 01:03:38;;;;;;;6.72;6.03;;;18.10;99.90;;;;;;5015606;28;20026;-77
2021/07/22 01:06:04;;;;;;;6.40;5.75;;;18.00;99.90;;;;;;5013592;28;20025;-78
2021/07/22 01:08:29;;;;;;;6.68;5.15;;;17.90;99.90;;;;;;5020172;28;20044;-77
2021/07/22 01:10:55;;;;;;;9.50;6.50;;;17.90;99.90;;;;;;5004136;28;20030;-76
2021/07/22 01:13:21;;;;;;;8.48;6.05;;;17.80;99.90;;;;;;5020786;28;20021;-76
2021/07/22 01:15:46;;;;;;;10.82;6.57;;;17.80;99.90;;;;;;5002803;28;20452;-76
2021/07/22 01:18:12;;;;;;;11.63;6.45;;;17.90;99.90;;;;;;5020275;28;20033;-76
2021/07/22 01:20:37;;;;;;;7.20;5.97;;;17.80;99.90;;;;;;4992365;28;20030;-76
2021/07/22 01:23:03;;;;;;;7.85;6.50;;;17.80;99.90;;;;;;4997227;28;20026;-76
2021/07/22 01:25:29;;;;;;;8.80;5.90;;;17.80;99.90;;;;;;4995268;28;20390;-78
2021/07/22 01:27:56;;;;;;;6.68;6.05;;;17.90;99.90;;;;;;5001396;28;20085;-77
2021/07/22 01:30:22;;;;;;;8.15;6.40;;;17.80;99.90;;;;;;5017331;28;20041;-76
2021/07/22 01:32:47;;;;;;;7.95;5.75;;;17.80;99.90;;;;;;5018660;28;20030;-76
2021/07/22 01:35:14;;;;;;;9.05;7.05;;;17.70;99.90;;;;;;5001223;28;20022;-76
2021/07/22 01:37:43;;;;;;;7.03;6.13;;;17.60;99.90;;;;;;5017887;28;20026;-76
2021/07/22 01:40:10;;;;;;;6.65;5.57;;;17.60;99.90;;;;;;5017884;28;20032;-76
2021/07/22 01:42:36;;;;;;;7.15;6.32;;;17.50;99.90;;;;;;5018987;28;20022;-76
2021/07/22 01:45:04;;;;;;;8.32;6.78;;;17.50;99.90;;;;;;5020032;28;20053;-76
2021/07/22 01:47:29;;;;;;;9.13;6.53;;;17.50;99.90;;;;;;5020026;28;20065;-75
2021/07/22 01:49:55;;;;;;;8.48;6.82;;;17.40;99.90;;;;;;5018917;28;20021;-75
2021/07/22 01:52:21;;;;;;;9.73;6.30;;;17.40;99.90;;;;;;5015881;28;20033;-76
2021/07/22 01:54:46;;;;;;;11.30;6.90;;;17.40;99.90;;;;;;5015328;28;20022;-76
2021/07/22 01:57:12;;;;;;;8.02;6.70;;;17.30;99.90;;;;;;5014929;28;20393;-76
2021/07/22 01:59:37;;;;;;;7.35;6.65;;;17.30;99.90;;;;;;4998870;28;20072;-76
2021/07/22 02:02:04;;;;;;;9.60;6.10;;;17.40;99.90;;;;;;5017658;28;20029;-76
2021/07/22 02:04:30;;;;;;;8.57;6.13;;;17.30;99.90;;;;;;5016959;28;20050;-75
2021/07/22 02:06:55;;;;;;;10.82;6.65;;;17.20;99.90;;;;;;5019293;28;20397;-77
2021/07/22 02:09:21;;;;;;;9.55;6.05;;;17.20;99.90;;;;;;5024644;28;20046;-75
2021/07/22 02:11:47;;;;;;;9.20;5.93;;;17.20;99.90;;;;;;5018557;28;20030;-76
2021/07/22 02:14:12;;;;;;;7.38;5.75;;;17.20;99.90;;;;;;5015764;28;20041;-77
2021/07/22 02:16:41;;;;;;;6.93;5.72;;;17.20;99.90;;;;;;5014353;28;20030;-76
2021/07/22 02:19:07;;;;;;;9.02;6.90;;;17.20;99.90;;;;;;5009547;28;20022;-78
2021/07/22 02:21:33;;;;;;;7.68;6.85;;;17.20;99.90;;;;;;4999044;28;20034;-78
2021/07/22 02:23:59;;;;;;;12.23;6.75;;;17.00;99.90;;;;;;4995187;28;20390;-77
2021/07/22 02:26:24;;;;;;;7.35;6.47;;;17.10;99.90;;;;;;4978721;28;20022;-77
2021/07/22 02:28:51;;;;;;;9.70;7.22;;;17.00;99.90;;;;;;4998443;28;20457;-77
2021/07/22 02:31:17;;;;;;;8.63;6.63;;;17.10;99.90;;;;;;4999305;28;20109;-77
2021/07/22 02:33:42;;;;;;;8.93;7.03;;;17.10;99.90;;;;;;4999523;28;20065;-77
2021/07/22 02:36:08;;;;;;;8.88;6.70;;;17.00;99.90;;;;;;4998105;28;20102;-77
2021/07/22 02:38:34;;;;;;;9.02;6.90;;;17.00;99.90;;;;;;4998974;28;20026;-77
2021/07/22 02:40:59;;;;;;;7.38;6.68;;;17.00;99.90;;;;;;4980353;28;20402;-78
2021/07/22 02:43:25;;;;;;;16.20;7.53;;;17.00;99.90;;;;;;4980623;28;20042;-77
2021/07/22 02:45:51;;;;;;;8.43;6.78;;;17.00;99.90;;;;;;4998473;28;20042;-78
2021/07/22 02:48:16;;;;;;;11.35;6.80;;;17.00;99.90;;;;;;4981054;28;20497;-77
2021/07/22 02:50:42;;;;;;;11.95;6.50;;;17.00;99.90;;;;;;4998331;28;20116;-78
2021/07/22 02:53:08;;;;;;;12.00;7.10;;;16.90;99.90;;;;;;4998543;28;20022;-77
2021/07/22 02:55:34;;;;;;;8.23;6.88;;;16.90;99.90;;;;;;4998407;28;20034;-76
2021/07/22 02:58:05;;;;;;;9.88;7.40;;;16.90;99.90;;;;;;4997887;28;20109;-76
2021/07/22 03:00:31;;;;;;;9.05;7.20;;;16.80;99.90;;;;;;4998378;28;20505;-76
2021/07/22 03:03:03;;;;;;;7.00;6.30;;;16.80;99.90;;;;;;4998421;28;20118;-76
2021/07/22 03:05:29;;;;;;;10.07;6.47;;;16.70;99.90;;;;;;4980608;28;20027;-76
2021/07/22 03:07:56;;;;;;;13.45;7.65;;;16.60;99.90;;;;;;4998319;28;20034;-76
2021/07/22 03:10:22;;;;;;;10.48;7.13;;;16.60;99.90;;;;;;4997865;28;20105;-77
2021/07/22 03:12:48;;;;;;;9.80;7.40;;;16.70;99.90;;;;;;5008000;28;20022;-76
2021/07/22 03:15:14;;;;;;;9.70;6.85;;;16.80;99.90;;;;;;5017648;28;20036;-76
2021/07/22 03:17:40;;;;;;;8.82;7.05;;;16.80;99.90;;;;;;5016885;28;20068;-76
2021/07/22 03:20:06;;;;;;;7.97;6.75;;;16.80;99.90;;;;;;4992194;28;20023;-76
2021/07/22 03:22:31;;;;;;;9.82;6.40;;;16.80;99.90;;;;;;4998376;28;20271;-76
2021/07/22 03:24:57;;;;;;;8.55;5.95;;;16.80;99.90;;;;;;5015325;28;20548;-77
2021/07/22 03:27:22;;;;;;;8.27;6.85;;;16.80;99.90;;;;;;5018369;28;20052;-77
2021/07/22 03:29:48;;;;;;;11.77;7.13;;;16.70;99.90;;;;;;4999236;28;20026;-75
2021/07/22 03:32:13;;;;;;;7.95;6.55;;;16.70;99.90;;;;;;4998056;28;20108;-75
2021/07/22 03:34:39;;;;;;;7.63;6.45;;;16.60;99.90;;;;;;5024576;28;20030;-76
2021/07/22 03:37:05;;;;;;;11.23;7.35;;;16.70;99.90;;;;;;5020674;28;20030;-77
2021/07/22 03:39:31;;;;;;;7.95;6.45;;;16.70;99.90;;;;;;5016928;28;20071;-76
2021/07/22 03:41:56;;;;;;;11.40;6.55;;;16.70;99.90;;;;;;5017269;28;20030;-76
2021/07/22 03:44:22;;;;;;;11.20;6.75;;;16.70;99.90;;;;;;5017203;28;20543;-77
2021/07/22 03:46:48;;;;;;;14.48;8.93;;;16.70;99.90;;;;;;5016796;28;20018;-77
2021/07/22 03:49:13;;;;;;;13.90;7.40;;;16.80;99.90;;;;;;4999125;28;20111;-77
2021/07/22 03:51:39;;;;;;;9.57;7.13;;;16.70;99.90;;;;;;5016634;28;20030;-76
2021/07/22 03:54:05;;;;;;;10.60;7.25;;;16.70;99.90;;;;;;5017055;28;20033;-76
2021/07/22 03:56:33;;;;;;;17.13;7.35;;;16.70;99.90;;;;;;5016120;28;20437;-76
2021/07/22 03:58:59;;;;;;;10.23;6.68;;;16.60;99.90;;;;;;5016447;28;20034;-78
2021/07/22 04:01:24;;;;;;;9.77;6.25;;;16.60;99.90;;;;;;5016931;28;20096;-77
2021/07/22 04:03:50;;;;;;;10.38;6.75;;;16.60;99.90;;;;;;5001002;28;20026;-77
2021/07/22 04:06:16;;;;;;;10.88;7.60;;;16.60;99.90;;;;;;5018231;28;20094;-76
2021/07/22 04:08:41;;;;;;;8.88;7.97;;;16.60;99.90;;;;;;5053590;22;20046;-76
2021/07/22 04:11:07;;;;;;;13.05;7.70;;;16.70;99.90;;;;;;5015671;28;20030;-75
2021/07/22 04:13:33;;;;;;;9.35;7.10;;;16.70;99.90;;;;;;5016223;28;20381;-75
2021/07/22 04:16:05;;;;;;;16.63;6.18;;;16.80;99.90;;;;;;5015833;28;20083;-77
2021/07/22 04:18:31;;;;;;;11.77;6.95;;;16.80;99.90;;;;;;5032926;28;20025;-75
2021/07/22 04:20:57;;;;;;;7.90;6.47;;;16.80;99.90;;;;;;5033454;28;20035;-76
2021/07/22 04:23:22;;;;;;;9.52;6.57;;;17.10;99.90;;;;;;5015803;28;20021;-75
2021/07/22 04:25:48;;;;;;;9.93;7.32;;;17.10;99.90;;;;;;5015284;28;20029;-76
2021/07/22 04:28:13;;;;;;;10.73;6.60;;;17.10;99.90;;;;;;5033370;28;20045;-76
2021/07/22 04:30:39;;;;;;;7.72;6.72;;;17.10;99.90;;;;;;5033092;28;20121;-76
2021/07/22 04:33:06;;;;;;;10.60;6.72;;;17.20;99.90;;;;;;5032951;28;20108;-76
2021/07/22 04:35:31;;;;;;;10.25;7.45;;;17.20;99.90;;;;;;5033204;28;20045;-76
2021/07/22 04:37:57;;;;;;;10.13;6.43;;;17.30;99.90;;;;;;5015393;28;20481;-76
2021/07/22 04:40:23;;;;;;;7.43;6.70;;;17.50;99.90;;;;;;5033174;28;20040;-75
2021/07/22 04:42:48;;;;;;;10.90;6.95;;;17.70;99.90;;;;;;5033394;28;20028;-75
2021/07/22 04:45:14;;;;;;;9.35;7.13;;;18.00;99.90;;;;;;5032320;28;20025;-74
2021/07/22 04:47:40;;;;;;;7.60;5.82;;;18.20;99.90;;;;;;5014847;28;20543;-76
2021/07/22 04:50:06;;;;;;;7.95;7.20;;;18.30;99.90;;;;;;5032316;28;20037;-75
2021/07/22 04:52:32;;;;;;;12.00;6.70;;;18.50;99.90;;;;;;5032530;28;20102;-77
2021/07/22 04:54:57;;;;;;;8.10;6.28;;;18.60;99.90;;;;;;5032151;28;20037;-76
2021/07/22 04:57:23;;;;;;;7.63;6.28;;;18.70;99.90;;;;;;5032510;28;20048;-76
2021/07/22 04:59:48;;;;;;;9.95;6.28;;;18.90;99.90;;;;;;5014717;28;20021;-77
2021/07/22 05:02:19;;;;;;;7.28;6.28;;;18.80;99.90;;;;;;5032456;28;20026;-77
2021/07/22 05:04:45;;;;;;;6.83;6.13;;;18.80;99.90;;;;;;5032503;28;20028;-75
2021/07/22 05:07:13;;;;;;;8.00;6.28;;;19.40;99.90;;;;;;5031972;28;20029;-75
2021/07/22 05:09:39;;;;;;;9.63;6.60;;;19.90;99.90;;;;;;5014334;28;20044;-76
2021/07/22 05:12:07;;;;;;;13.57;6.20;;;20.20;99.90;;;;;;5032193;28;20613;-76
2021/07/22 05:14:33;;;;;;;10.95;6.32;;;20.30;99.90;;;;;;5032022;28;20080;-75
2021/07/22 05:16:59;;;;;;;15.00;7.38;;;20.70;99.90;;;;;;5031898;28;20033;-76
2021/07/22 05:19:24;;;;;;;10.43;7.10;;;21.30;99.90;;;;;;5026464;28;20026;-76
2021/07/22 05:21:50;;;;;;;12.43;6.15;;;21.90;99.90;;;;;;5013582;28;20021;-76
2021/07/22 05:24:15;;;;;;;12.73;6.90;;;22.30;99.90;;;;;;5031710;28;20022;-75
2021/07/22 05:26:41;;;;;;;10.45;7.40;;;22.40;99.90;;;;;;5031867;28;20397;-76
2021/07/22 05:29:07;;;;;;;9.27;6.93;;;22.20;99.90;;;;;;5014425;28;20525;-75
2021/07/22 05:31:33;;;;;;;13.38;8.60;;;22.90;99.90;;;;;;5014343;28;20033;-75
2021/07/22 05:34:00;;;;;;;13.48;8.45;;;23.30;99.90;;;;;;5031834;28;20030;-76
2021/07/22 05:36:25;;;;;;;13.30;8.77;;;22.60;99.90;;;;;;5014066;28;20037;-75
2021/07/22 05:38:51;;;;;;;10.90;8.93;;;23.10;99.90;;;;;;5031801;28;20029;-76
2021/07/22 05:41:16;;;;;;;17.55;9.63;;;23.50;99.90;;;;;;5031681;28;20097;-76
2021/07/22 05:43:43;;;;;;;9.38;8.07;;;23.70;99.90;;;;;;5031600;28;20029;-76
2021/07/22 05:46:08;;;;;;;12.25;8.70;;;23.90;99.90;;;;;;5031665;28;20036;-75
2021/07/22 05:48:34;;;;;;;15.43;8.65;;;23.70;99.90;;;;;;5031815;28;20026;-76
2021/07/22 05:51:03;;;;;;;14.10;8.27;;;23.40;99.90;;;;;;5014067;28;20026;-75
2021/07/22 05:53:29;;;;;;;10.00;8.13;;;23.40;99.90;;;;;;5014241;28;20026;-75
2021/07/22 05:55:58;;;;;;;9.82;8.82;;;22.60;99.90;;;;;;5031860;28;20503;-75
2021/07/22 05:58:24;;;;;;;10.48;8.13;;;22.60;99.90;;;;;;5031565;28;20025;-75
2021/07/22 06:00:49;;;;;;;10.02;8.50;;;22.90;99.90;;;;;;5032038;28;20026;-76
2021/07/22 06:03:15;;;;;;;9.68;8.68;;;23.60;99.90;;;;;;5035630;28;20397;-75
2021/07/22 06:05:40;;;;;;;10.40;7.63;;;23.60;99.90;;;;;;5017736;28;20088;-75
2021/07/22 06:08:06;;;;;;;10.88;7.32;;;22.90;99.90;;;;;;5035223;28;20033;-75
2021/07/22 06:10:32;;;;;;;13.95;8.00;;;22.50;99.90;;;;;;5018147;28;20036;-76
2021/07/22 06:12:58;;;;;;;8.70;7.57;;;22.30;99.90;;;;;;5035427;28;20021;-76
2021/07/22 06:15:24;;;;;;;9.13;8.23;;;22.60;99.90;;;;;;5013783;28;20116;-76
2021/07/22 06:17:49;;;;;;;8.88;7.97;;;22.50;99.90;;;;;;5023149;28;20064;-77
2021/07/22 06:20:15;;;;;;;13.48;8.52;;;22.20;99.90;;;;;;5034518;28;20044;-76
2021/07/22 06:22:44;;;;;;;9.02;7.93;;;22.40;99.90;;;;;;5034928;28;20045;-75
2021/07/22 06:25:11;;;;;;;9.98;8.10;;;22.30;99.90;;;;;;5027500;28;20025;-76
2021/07/22 06:27:36;;;;;;;9.50;8.52;;;21.70;99.90;;;;;;5023556;28;20032;-75
2021/07/22 06:30:03;;;;;;;14.13;9.10;;;21.40;99.90;;;;;;5038616;28;20025;-74
2021/07/22 06:32:29;;;;;;;11.18;9.40;;;22.10;99.90;;;;;;5017330;28;20033;-75
2021/07/22 06:34:54;;;;;;;11.13;9.00;;;22.20;99.90;;;;;;5016911;28;20021;-75
2021/07/22 06:37:20;;;;;;;16.00;9.50;;;21.80;99.90;;;;;;5021095;28;20105;-77
2021/07/22 06:39:46;;;;;;;12.70;9.20;;;21.90;99.90;;;;;;5016524;28;20075;-76
2021/07/22 06:42:11;;;;;;;13.23;9.27;;;21.40;99.90;;;;;;5017126;28;20493;-76
2021/07/22 06:44:37;;;;;;;17.13;9.00;;;21.20;99.90;;;;;;5038411;28;20048;-76
2021/07/22 06:47:03;;;;;;;14.75;8.68;;;21.10;99.90;;;;;;5048561;28;20033;-77
2021/07/22 06:49:28;;;;;;;11.80;9.30;;;21.00;99.90;;;;;;5017134;28;20017;-77
2021/07/22 06:51:54;;;;;;;14.65;9.73;;;21.30;99.90;;;;;;5047151;28;20103;-75
2021/07/22 06:54:20;;;;;;;11.63;9.70;;;21.40;99.90;;;;;;5034513;28;20506;-77
2021/07/22 06:56:46;;;;;;;11.48;9.15;;;21.50;99.90;;;;;;5040980;28;20020;-75
2021/07/22 06:59:12;;;;;;;11.07;8.98;;;21.60;99.90;;;;;;5034534;28;20093;-75
2021/07/22 07:01:38;;;;;;;16.17;10.35;;;22.30;99.90;;;;;;5016037;28;20098;-75
2021/07/22 07:04:04;;;;;;;10.73;9.25;;;22.40;99.90;;;;;;5034364;28;20025;-74
2021/07/22 07:06:32;;;;;;;12.63;8.00;;;22.70;99.90;;;;;;5034154;28;20033;-75
2021/07/22 07:08:57;;;;;;;14.38;8.05;;;22.10;99.90;;;;;;5016610;28;20122;-74
2021/07/22 07:11:23;;;;;;;10.55;8.52;;;22.10;99.90;;;;;;5034533;28;20484;-75
2021/07/22 07:13:48;;;;;;;10.85;7.65;;;22.60;99.90;;;;;;5032973;28;20374;-75
2021/07/22 07:16:14;;;;;;;10.40;7.32;;;22.70;99.90;;;;;;5034414;28;20079;-75
2021/07/22 07:18:39;;;;;;;15.02;8.65;;;22.50;99.90;;;;;;5034281;28;20079;-75
2021/07/22 07:21:05;;;;;;;8.30;7.40;;;22.30;99.90;;;;;;5016336;28;20045;-76
2021/07/22 07:23:32;;;;;;;8.23;7.03;;;22.70;99.90;;;;;;5034005;28;20382;-75
2021/07/22 07:25:57;;;;;;;8.02;7.22;;;23.10;99.90;;;;;;5015733;28;20029;-76
2021/07/22 07:28:23;;;;;;;10.07;7.93;;;22.90;99.90;;;;;;5034164;28;20396;-75
2021/07/22 07:30:49;;;;;;;9.02;7.03;;;22.90;99.90;;;;;;5034107;28;20025;-75
2021/07/22 07:33:14;;;;;;;11.38;7.95;;;22.90;99.90;;;;;;5016224;28;20087;-75
2021/07/22 07:35:40;;;;;;;10.77;7.90;;;23.10;99.90;;;;;;5033818;28;20076;-76
2021/07/22 07:38:05;;;;;;;13.15;8.63;;;22.70;99.90;;;;;;5033651;28;20029;-75
2021/07/22 07:40:31;;;;;;;9.10;7.63;;;22.50;99.90;;;;;;5033589;28;20562;-75
2021/07/22 07:42:57;;;;;;;10.82;8.38;;;22.80;99.90;;;;;;5015871;28;20049;-75
2021/07/22 07:45:24;;;;;;;10.35;9.35;;;22.80;99.90;;;;;;5033729;28;20506;-76
2021/07/22 07:47:50;;;;;;;9.65;7.35;;;22.90;99.90;;;;;;5033505;28;20088;-74
2021/07/22 07:50:16;;;;;;;10.25;7.80;;;22.80;99.90;;;;;;5033499;28;20417;-75
2021/07/22 07:52:42;;;;;;;9.93;8.52;;;23.00;99.90;;;;;;5015545;28;20049;-75
2021/07/22 07:55:08;;;;;;;14.02;7.60;;;23.10;99.90;;;;;;5033296;28;20053;-74
2021/07/22 07:57:34;;;;;;;11.38;7.82;;;23.00;99.90;;;;;;5033174;28;20027;-76
2021/07/22 07:59:59;;;;;;;13.98;7.90;;;22.50;99.90;;;;;;5015475;28;20021;-76
2021/07/22 08:02:25;;;;;;;8.05;7.10;;;22.80;99.90;;;;;;5033191;28;20108;-75
2021/07/22 08:04:50;;;;;;;10.10;7.38;;;22.90;99.90;;;;;;5033372;28;20478;-75
2021/07/22 08:07:16;;;;;;;9.98;7.10;;;23.00;99.90;;;;;;5032933;28;20029;-75
2021/07/22 08:09:44;;;;;;;12.57;7.03;;;23.30;99.90;;;;;;5033212;28;20068;-75
2021/07/22 08:12:09;;;;;;;8.13;6.85;;;23.70;99.90;;;;;;5033285;28;20053;-74
2021/07/22 08:14:38;;;;;;;9.35;6.40;;;23.80;99.90;;;;;;5033151;28;20034;-75
2021/07/22 08:17:05;;;;;;;6.43;5.88;;;23.60;99.20;;;;;;5032938;28;20104;-75
2021/07/22 08:19:31;;;;;;;7.75;6.97;;;23.90;98.40;;;;;;5044617;28;20024;-75
2021/07/22 08:21:56;;;;;;;7.03;6.20;;;23.60;99.10;;;;;;5034896;28;20404;-76
2021/07/22 08:24:22;;;;;;;15.70;6.70;;;23.80;98.70;;;;;;5052325;28;20094;-74
2021/07/22 08:26:47;;;;;;;8.10;6.55;;;23.80;98.80;;;;;;5052639;28;20021;-74
2021/07/22 08:29:13;;;;;;;7.53;6.28;;;23.90;98.90;;;;;;5034604;28;20021;-75
2021/07/22 08:31:38;;;;;;;6.30;5.70;;;23.70;98.80;;;;;;5052595;28;20040;-75
2021/07/22 08:34:04;;;;;;;6.57;5.97;;;24.10;97.40;;;;;;5052399;28;20028;-75
2021/07/22 08:36:29;;;;;;;7.15;5.70;;;24.10;97.60;;;;;;5034649;28;20020;-75
2021/07/22 08:38:55;;;;;;;7.63;6.38;;;23.80;97.80;;;;;;5052544;28;20079;-75
2021/07/22 08:41:20;;;;;;;10.82;6.85;;;23.80;97.70;;;;;;5034738;28;20032;-76
2021/07/22 08:43:49;;;;;;;7.90;5.65;;;23.70;97.80;;;;;;5052307;28;20082;-76
2021/07/22 08:46:15;;;;;;;7.03;6.35;;;23.90;97.80;;;;;;5052157;28;20469;-75
2021/07/22 08:48:42;;;;;;;8.43;7.57;;;24.40;97.40;;;;;;5052269;28;20021;-74
2021/07/22 08:51:08;;;;;;;8.63;6.05;;;24.40;97.20;;;;;;5052257;28;20017;-74
2021/07/22 08:53:35;;;;;;;7.57;6.45;;;24.50;97.20;;;;;;5052303;28;20028;-75
2021/07/22 08:56:02;;;;;;;7.40;6.70;;;24.40;97.20;;;;;;5052208;28;20503;-75
2021/07/22 08:58:28;;;;;;;8.07;6.07;;;24.20;97.40;;;;;;5052051;28;20484;-75
2021/07/22 09:00:58;;;;;;;10.70;6.22;;;24.20;97.60;;;;;;5052260;28;20397;-75
2021/07/22 09:03:24;;;;;;;9.82;6.45;;;24.50;97.50;;;;;;5034191;28;20020;-76
2021/07/22 09:05:50;;;;;;;7.18;5.95;;;24.80;97.00;;;;;;5052156;28;20436;-74
2021/07/22 09:08:16;;;;;;;8.55;5.53;;;24.90;96.60;;;;;;5051972;28;20103;-75
2021/07/22 09:10:41;;;;;;;6.00;5.40;;;25.20;96.50;;;;;;5052608;28;20049;-75
2021/07/22 09:13:22;;;;;;;9.07;6.22;;;25.20;96.00;;;;;;5052692;28;20112;-75
2021/07/22 09:15:52;;;;;;;8.95;5.80;;;25.30;95.80;;;;;;5034225;28;20032;-75
2021/07/22 09:18:26;;;;;;;6.18;5.57;;;25.30;96.10;;;;;;5052039;28;20033;-76
2021/07/22 09:20:53;;;;;;;12.60;7.30;;;25.30;95.80;;;;;;5033913;28;20120;-75
2021/07/22 09:23:24;;;;;;;7.07;5.82;;;25.40;95.60;;;;;;5052032;28;20045;-75
2021/07/22 09:25:51;;;;;;;7.55;6.00;;;25.50;95.40;;;;;;5033758;28;20017;-75
2021/07/22 09:28:19;;;;;;;10.88;5.68;;;25.50;95.50;;;;;;5051609;28;20021;-75
2021/07/22 09:31:01;;;;;;;7.32;5.82;;;25.70;95.10;;;;;;5033819;28;20158;-75
2021/07/22 09:33:43;;;;;;;9.70;6.18;;;25.70;94.70;;;;;;5047040;28;20014;-74
2021/07/22 09:36:35;;;;;;;5.07;4.68;;;25.50;95.10;;;;;;5031047;28;20036;-75
2021/07/22 09:39:23;;;;;;;8.85;6.20;;;25.80;95.10;;;;;;5011826;28;20059;-74
2021/07/22 09:42:03;;;;;;;9.38;5.95;;;25.80;94.90;;;;;;5031554;28;20021;-75
2021/07/22 09:44:38;;;;;;;6.68;5.47;;;25.80;95.10;;;;;;5031817;28;20025;-75
2021/07/22 09:47:06;;;;;;;8.70;5.50;;;25.90;94.70;;;;;;5031735;28;20076;-75
2021/07/22 09:49:39;;;;;;;8.40;6.32;;;25.80;95.00;;;;;;5031799;28;20075;-76
2021/07/22 09:52:17;;;;;;;8.90;6.25;;;26.10;94.60;;;;;;5013765;28;20029;-75
2021/07/22 09:54:43;;;;;;;14.27;5.50;;;25.40;94.70;;;;;;5032110;28;20030;-76
2021/07/22 09:57:16;;;;;;;6.22;5.70;;;25.50;95.00;;;;;;5013724;28;20025;-74
2021/07/22 09:59:43;;;;;;;8.77;5.38;;;26.00;94.60;;;;;;5031590;28;20028;-76
2021/07/22 10:02:16;;;;;;;7.15;6.00;;;25.80;94.10;;;;;;5031539;28;20026;-74
2021/07/22 10:04:43;;;;;;;9.48;6.25;;;25.90;94.50;;;;;;5013789;28;20056;-76
2021/07/22 10:07:10;;;;;;;6.07;5.47;;;26.30;93.20;;;;;;5031218;28;20033;-75
2021/07/22 10:09:37;;;;;;;7.13;5.47;;;26.30;93.10;;;;;;5014058;28;20022;-74
2021/07/22 10:12:03;;;;;;;9.30;5.63;;;26.30;93.30;;;;;;5031435;28;20495;-74
2021/07/22 10:14:30;;;;;;;7.38;5.30;;;26.40;93.10;;;;;;5014077;28;20029;-74
2021/07/22 10:17:00;;;;;;;5.88;5.38;;;26.40;92.90;;;;;;5013759;28;20078;-75
2021/07/22 10:19:27;;;;;;;6.03;5.00;;;26.10;92.70;;;;;;5042507;28;20116;-74
2021/07/22 10:21:53;;;;;;;6.97;4.72;;;26.30;92.40;;;;;;5051045;28;20055;-75
2021/07/22 10:24:21;;;;;;;5.32;4.78;;;26.50;92.10;;;;;;5051274;28;20108;-75
2021/07/22 10:26:46;;;;;;;7.65;4.85;;;26.50;92.20;;;;;;5058108;28;20614;-73
2021/07/22 10:29:12;;;;;;;6.75;4.68;;;26.80;92.00;;;;;;5052483;28;20059;-74
2021/07/22 10:31:44;;;;;;;5.80;5.18;;;26.90;91.70;;;;;;5051526;28;20029;-76
2021/07/22 10:34:11;;;;;;;5.65;5.03;;;27.00;91.30;;;;;;5051402;28;20497;-76
2021/07/22 10:36:40;;;;;;;7.38;5.07;;;27.10;91.10;;;;;;5051646;28;20062;-76
2021/07/22 10:39:06;;;;;;;8.52;5.53;;;27.30;91.10;;;;;;5032965;28;20037;-74
2021/07/22 10:41:35;;;;;;;6.57;5.00;;;27.50;90.30;;;;;;5051161;28;20483;-74
2021/07/22 10:44:00;;;;;;;6.65;4.68;;;27.10;90.80;;;;;;5033277;28;20055;-74
2021/07/22 10:46:55;;;;;;;6.65;5.68;;;26.90;91.70;;;;;;5050954;28;20025;-76
2021/07/22 10:49:38;;;;;;;8.13;6.15;;;27.00;91.10;;;;;;5054680;28;20048;-74
2021/07/22 10:52:04;;;;;;;5.47;4.68;;;27.20;90.40;;;;;;5054841;28;20025;-76
2021/07/22 10:54:43;;;;;;;5.30;4.30;;;27.50;90.30;;;;;;5036717;28;20052;-75
2021/07/22 10:57:38;;;;;;;6.13;4.82;;;27.30;90.20;;;;;;5036601;28;20396;-74
2021/07/22 11:00:07;;;;;;;6.78;5.80;;;27.60;90.40;;;;;;5054377;28;20025;-74
2021/07/22 11:02:44;;;;;;;6.30;5.55;;;27.60;90.00;;;;;;5054144;28;20617;-75
2021/07/22 11:05:39;;;;;;;5.57;5.07;;;27.10;90.40;;;;;;5053971;28;20025;-75
2021/07/22 11:08:22;;;;;;;6.80;5.07;;;27.20;90.10;;;;;;5042948;28;20458;-75
2021/07/22 11:10:57;;;;;;;6.07;5.47;;;27.70;89.90;;;;;;5036355;28;20508;-74
2021/07/22 11:13:41;;;;;;;8.52;5.88;;;27.70;88.80;;;;;;5054235;28;20052;-73
2021/07/22 11:16:22;;;;;;;6.15;5.22;;;27.70;88.40;;;;;;5053909;28;20361;-74
2021/07/22 11:18:53;;;;;;;5.97;5.45;;;27.50;89.20;;;;;;5054085;28;20495;-76
2021/07/22 11:21:31;;;;;;;5.72;4.80;;;27.30;89.50;;;;;;5054002;28;20060;-75
2021/07/22 11:24:02;;;;;;;6.55;5.55;;;27.00;88.50;;;;;;5036456;28;20044;-74
2021/07/22 11:26:40;;;;;;;6.45;5.20;;;27.00;90.00;;;;;;5035853;28;20036;-74
2021/07/22 11:29:07;;;;;;;6.40;4.72;;;27.00;90.20;;;;;;5053866;28;20075;-74
2021/07/22 11:32:02;;;;;;;6.00;5.40;;;27.50;89.00;;;;;;5035342;28;20116;-76
2021/07/22 11:34:30;;;;;;;8.35;5.20;;;27.70;88.50;;;;;;4995493;28;20436;-75
2021/07/22 11:37:00;;;;;;;6.40;5.45;;;27.90;89.00;;;;;;4996225;28;20493;-76
2021/07/22 11:39:33;;;;;;;9.30;5.53;;;27.90;88.20;;;;;;5014347;28;20076;-76
2021/07/22 11:42:25;;;;;;;5.90;4.78;;;27.60;87.70;;;;;;5014074;28;20167;-74
2021/07/22 11:45:07;;;;;;;5.88;5.38;;;27.60;87.30;;;;;;4993771;28;20034;-74
2021/07/22 11:47:33;;;;;;;7.70;5.68;;;27.80;87.70;;;;;;5014398;28;20029;-74
2021/07/22 11:50:00;;;;;;;5.72;5.18;;;28.10;87.00;;;;;;4996534;28;20029;-77
2021/07/22 11:52:26;;;;;;;9.13;5.30;;;28.00;86.20;;;;;;4996390;28;20167;-75
2021/07/22 11:55:12;;;;;;;7.75;5.20;;;28.00;86.90;;;;;;5013956;28;20310;-76
2021/07/22 11:57:42;;;;;;;6.25;5.63;;;27.50;87.40;;;;;;5014076;28;20025;-75
2021/07/22 12:00:26;;;;;;;8.43;5.63;;;27.60;86.70;;;;;;5007722;28;20034;-75
2021/07/22 12:02:54;;;;;;;7.35;6.05;;;27.70;86.00;;;;;;5035222;28;20087;-75
2021/07/22 12:05:24;;;;;;;6.53;5.75;;;27.60;86.40;;;;;;5037429;28;20119;-74
2021/07/22 12:07:52;;;;;;;6.28;5.57;;;27.30;86.80;;;;;;5036732;28;20034;-73
2021/07/22 12:10:29;;;;;;;6.50;5.80;;;27.20;86.20;;;;;;5037594;28;20018;-73
2021/07/22 12:13:03;;;;;;;7.93;7.13;;;27.30;85.70;;;;;;5021061;28;20029;-73
2021/07/22 12:15:31;;;;;;;7.13;6.25;;;27.30;85.40;;;;;;5037863;28;20071;-74
2021/07/22 12:17:57;;;;;;;7.43;6.57;;;27.40;85.50;;;;;;5037901;28;20137;-74
2021/07/22 12:20:22;;;;;;;7.35;6.35;;;27.50;86.80;;;;;;5056935;28;20021;-76
2021/07/22 12:22:48;;;;;;;7.55;5.88;;;27.70;86.10;;;;;;5058080;28;20069;-73
2021/07/22 12:25:15;;;;;;;7.35;5.82;;;28.20;85.20;;;;;;5035348;28;20029;-75
2021/07/22 12:27:51;;;;;;;6.78;6.07;;;28.50;85.70;;;;;;5027398;28;20022;-75
2021/07/22 12:30:22;;;;;;;8.55;5.97;;;28.40;84.90;;;;;;5039694;28;20047;-75
2021/07/22 12:32:51;;;;;;;7.13;6.38;;;28.40;84.90;;;;;;5037123;28;20110;-75
2021/07/22 12:35:33;;;;;;;7.88;5.35;;;28.10;86.20;;;;;;5036454;28;20021;-76
2021/07/22 12:38:04;;;;;;;8.32;5.95;;;28.30;85.70;;;;;;5047088;28;20028;-75
2021/07/22 12:40:54;;;;;;;9.30;5.70;;;28.20;85.20;;;;;;5053794;28;20025;-74
2021/07/22 12:43:24;;;;;;;6.28;5.68;;;27.90;85.30;;;;;;5056041;28;20049;-73
2021/07/22 12:45:53;;;;;;;7.35;6.50;;;28.00;86.40;;;;;;5038871;28;20025;-74